DLH3A EHAM-EDDF
Flight info
| Callsign | DLH3A |
|---|---|
| Flight time | 0h 48m |
| Altitude | 33000 |
| Route | EDUPO Z739 MISGO DCT DIXAT DIXAT1A |
| Aircraft | A321/M-SDE2E3FGIJ1LORWXYZ/HB1 |
Departure
| Time | 2026-05-06 18:35 |
|---|---|
| Airport | Amsterdam Airport Schiphol (EHAM) |
Arrival
| Time | 2026-05-06 19:23 |
|---|---|
| Airport | Frankfurt Main Airport (EDDF) |
| Time | Latitude | Longitude | Altitude | Speed | Heading |
|---|---|---|---|---|---|
| 2026-05-06 18:07 | 52.30377 | 4.76397 | -1 ft | 0 kts | 238° |
| 2026-05-06 18:21 | 52.30378 | 4.76400 | -1 ft | 3 kts | 238° |
| 2026-05-06 18:21 | 52.30393 | 4.76435 | -1 ft | 4 kts | 225° |
| 2026-05-06 18:22 | 52.30411 | 4.76453 | -1 ft | 3 kts | 163° |
| 2026-05-06 18:22 | 52.30416 | 4.76451 | -1 ft | 0 kts | 158° |
| 2026-05-06 18:25 | 52.30415 | 4.76452 | -1 ft | 1 kts | 158° |
| 2026-05-06 18:25 | 52.30407 | 4.76460 | -1 ft | 2 kts | 147° |
| 2026-05-06 18:25 | 52.30390 | 4.76481 | -1 ft | 4 kts | 143° |
| 2026-05-06 18:26 | 52.30364 | 4.76510 | -1 ft | 5 kts | 147° |
| 2026-05-06 18:26 | 52.30327 | 4.76538 | -1 ft | 6 kts | 169° |
| 2026-05-06 18:26 | 52.30290 | 4.76501 | -1 ft | 7 kts | 227° |
| 2026-05-06 18:26 | 52.30258 | 4.76427 | -1 ft | 9 kts | 237° |
| 2026-05-06 18:27 | 52.30223 | 4.76335 | -1 ft | 10 kts | 238° |
| 2026-05-06 18:27 | 52.30181 | 4.76226 | -1 ft | 13 kts | 238° |
| 2026-05-06 18:27 | 52.30125 | 4.76079 | -1 ft | 17 kts | 238° |
| 2026-05-06 18:27 | 52.30060 | 4.75910 | -1 ft | 18 kts | 238° |
| 2026-05-06 18:28 | 52.29991 | 4.75731 | -1 ft | 19 kts | 238° |
| 2026-05-06 18:28 | 52.29919 | 4.75542 | -1 ft | 20 kts | 238° |
| 2026-05-06 18:28 | 52.29851 | 4.75364 | -1 ft | 14 kts | 239° |
| 2026-05-06 18:28 | 52.29836 | 4.75236 | -1 ft | 12 kts | 281° |
| 2026-05-06 18:29 | 52.29886 | 4.75123 | -1 ft | 13 kts | 306° |
| 2026-05-06 18:29 | 52.29947 | 4.74997 | -1 ft | 16 kts | 309° |
| 2026-05-06 18:29 | 52.30025 | 4.74853 | -1 ft | 18 kts | 312° |
| 2026-05-06 18:29 | 52.30110 | 4.74697 | 6 ft | 17 kts | 311° |
| 2026-05-06 18:30 | 52.30179 | 4.74571 | 10 ft | 15 kts | 311° |
| 2026-05-06 18:30 | 52.30250 | 4.74439 | 10 ft | 16 kts | 311° |
| 2026-05-06 18:30 | 52.30332 | 4.74285 | -2 ft | 17 kts | 309° |
| 2026-05-06 18:30 | 52.30371 | 4.74171 | -1 ft | 11 kts | 274° |
| 2026-05-06 18:31 | 52.30344 | 4.74071 | -1 ft | 10 kts | 230° |
| 2026-05-06 18:31 | 52.30292 | 4.74001 | -1 ft | 9 kts | 216° |
| 2026-05-06 18:31 | 52.30239 | 4.73937 | -1 ft | 7 kts | 216° |
| 2026-05-06 18:31 | 52.30226 | 4.73921 | -1 ft | 0 kts | 218° |
| 2026-05-06 18:32 | 52.30223 | 4.73918 | -1 ft | 2 kts | 218° |
| 2026-05-06 18:32 | 52.30204 | 4.73888 | -1 ft | 7 kts | 228° |
| 2026-05-06 18:32 | 52.30192 | 4.73800 | -2 ft | 9 kts | 283° |
| 2026-05-06 18:32 | 52.30249 | 4.73743 | -3 ft | 11 kts | 358° |
| 2026-05-06 18:33 | 52.30256 | 4.73744 | -4 ft | 0 kts | 3° |
| 2026-05-06 18:34 | 52.30257 | 4.73744 | -4 ft | 1 kts | 2° |
| 2026-05-06 18:34 | 52.30378 | 4.73754 | -4 ft | 50 kts | 3° |
| 2026-05-06 18:34 | 52.30979 | 4.73809 | 0 ft | 120 kts | 3° |
| 2026-05-06 18:35 | 52.31982 | 4.73893 | 234 ft | 150 kts | 3° |
| 2026-05-06 18:35 | 52.32974 | 4.74089 | 1122 ft | 143 kts | 20° |
| 2026-05-06 18:35 | 52.33911 | 4.74683 | 1731 ft | 150 kts | 22° |
| 2026-05-06 18:35 | 52.34966 | 4.75303 | 2050 ft | 172 kts | 21° |
| 2026-05-06 18:36 | 52.36164 | 4.75988 | 2291 ft | 193 kts | 21° |
| 2026-05-06 18:36 | 52.37469 | 4.76780 | 2612 ft | 206 kts | 27° |
| 2026-05-06 18:36 | 52.38647 | 4.78288 | 2802 ft | 228 kts | 46° |
| 2026-05-06 18:36 | 52.39787 | 4.80221 | 3344 ft | 241 kts | 46° |
| 2026-05-06 18:37 | 52.40958 | 4.82228 | 4078 ft | 246 kts | 49° |
| 2026-05-06 18:37 | 52.41620 | 4.83749 | 4588 ft | 250 kts | 60° |
| 2026-05-06 18:37 | 52.42347 | 4.87397 | 5574 ft | 259 kts | 83° |
| 2026-05-06 18:37 | 52.42359 | 4.90367 | 6385 ft | 261 kts | 88° |
| 2026-05-06 18:38 | 52.42359 | 4.93347 | 7156 ft | 263 kts | 88° |
| 2026-05-06 18:38 | 52.42133 | 4.96343 | 7839 ft | 271 kts | 104° |
| 2026-05-06 18:38 | 52.41356 | 4.99217 | 8477 ft | 281 kts | 122° |
| 2026-05-06 18:38 | 52.40036 | 5.01626 | 9141 ft | 288 kts | 141° |
| 2026-05-06 18:39 | 52.38392 | 5.03547 | 9845 ft | 292 kts | 144° |
| 2026-05-06 18:39 | 52.36697 | 5.05490 | 10251 ft | 307 kts | 144° |
| 2026-05-06 18:39 | 52.34882 | 5.07576 | 10394 ft | 330 kts | 144° |
| 2026-05-06 18:40 | 52.31444 | 5.12910 | 11264 ft | 348 kts | 131° |
| 2026-05-06 18:40 | 52.29821 | 5.15882 | 11900 ft | 352 kts | 131° |
| 2026-05-06 18:40 | 52.28171 | 5.18885 | 12448 ft | 358 kts | 132° |
| 2026-05-06 18:40 | 52.26496 | 5.21922 | 13060 ft | 361 kts | 132° |
| 2026-05-06 18:41 | 52.25378 | 5.23945 | 13506 ft | 363 kts | 132° |
| 2026-05-06 18:41 | 52.23772 | 5.27136 | 14073 ft | 367 kts | 126° |
| 2026-05-06 18:41 | 52.22293 | 5.30539 | 14668 ft | 369 kts | 126° |
| 2026-05-06 18:41 | 52.20807 | 5.33969 | 15243 ft | 371 kts | 126° |
| 2026-05-06 18:42 | 52.19310 | 5.37430 | 15792 ft | 375 kts | 126° |
| 2026-05-06 18:42 | 52.17801 | 5.40918 | 16362 ft | 378 kts | 126° |
| 2026-05-06 18:42 | 52.16276 | 5.44432 | 16919 ft | 381 kts | 126° |
| 2026-05-06 18:42 | 52.14741 | 5.47954 | 17526 ft | 382 kts | 125° |
| 2026-05-06 18:43 | 52.13194 | 5.51496 | 18089 ft | 385 kts | 125° |
| 2026-05-06 18:43 | 52.11633 | 5.55061 | 18579 ft | 388 kts | 126° |
| 2026-05-06 18:43 | 52.10064 | 5.58637 | 19058 ft | 390 kts | 126° |
| 2026-05-06 18:43 | 52.08479 | 5.62249 | 19544 ft | 393 kts | 126° |
| 2026-05-06 18:44 | 52.06888 | 5.65873 | 20019 ft | 395 kts | 126° |
| 2026-05-06 18:44 | 52.05179 | 5.69379 | 20473 ft | 397 kts | 132° |
| 2026-05-06 18:44 | 52.03362 | 5.72767 | 20934 ft | 399 kts | 132° |
| 2026-05-06 18:44 | 52.01531 | 5.76176 | 21402 ft | 402 kts | 132° |
| 2026-05-06 18:45 | 51.99689 | 5.79600 | 21857 ft | 404 kts | 132° |
| 2026-05-06 18:45 | 51.97834 | 5.83044 | 22306 ft | 406 kts | 132° |
| 2026-05-06 18:45 | 51.95976 | 5.86507 | 22743 ft | 408 kts | 132° |
| 2026-05-06 18:45 | 51.94108 | 5.90001 | 23159 ft | 411 kts | 132° |
| 2026-05-06 18:46 | 51.92229 | 5.93519 | 23559 ft | 414 kts | 132° |
| 2026-05-06 18:46 | 51.90341 | 5.97052 | 23918 ft | 416 kts | 132° |
| 2026-05-06 18:46 | 51.88439 | 6.00605 | 24288 ft | 418 kts | 133° |
| 2026-05-06 18:46 | 51.86527 | 6.04162 | 24674 ft | 420 kts | 133° |
| 2026-05-06 18:47 | 51.84567 | 6.07668 | 25054 ft | 420 kts | 135° |
| 2026-05-06 18:47 | 51.82516 | 6.11038 | 25440 ft | 421 kts | 137° |
| 2026-05-06 18:47 | 51.80444 | 6.14275 | 25813 ft | 423 kts | 138° |
| 2026-05-06 18:47 | 51.78270 | 6.17614 | 26194 ft | 424 kts | 138° |
| 2026-05-06 18:48 | 51.76136 | 6.20915 | 26564 ft | 426 kts | 137° |
| 2026-05-06 18:48 | 51.74008 | 6.24249 | 26927 ft | 427 kts | 137° |
| 2026-05-06 18:48 | 51.71887 | 6.27621 | 27300 ft | 429 kts | 137° |
| 2026-05-06 18:48 | 51.69772 | 6.31014 | 27659 ft | 430 kts | 136° |
| 2026-05-06 18:49 | 51.67643 | 6.34440 | 27958 ft | 434 kts | 136° |
| 2026-05-06 18:49 | 51.65503 | 6.37870 | 28295 ft | 436 kts | 136° |
| 2026-05-06 18:49 | 51.63347 | 6.41319 | 28621 ft | 438 kts | 136° |
| 2026-05-06 18:49 | 51.61184 | 6.44771 | 29005 ft | 438 kts | 136° |
| 2026-05-06 18:50 | 51.59049 | 6.48174 | 29871 ft | 428 kts | 136° |
| 2026-05-06 18:50 | 51.56950 | 6.51505 | 30119 ft | 431 kts | 137° |
| 2026-05-06 18:50 | 51.54812 | 6.54890 | 30427 ft | 430 kts | 136° |
| 2026-05-06 18:50 | 51.52688 | 6.58249 | 30754 ft | 429 kts | 137° |
| 2026-05-06 18:51 | 51.50555 | 6.61619 | 30888 ft | 431 kts | 137° |
| 2026-05-06 18:51 | 51.46341 | 6.68267 | 30914 ft | 422 kts | 137° |
| 2026-05-06 18:52 | 51.42171 | 6.74827 | 30919 ft | 421 kts | 137° |
| 2026-05-06 18:52 | 51.37963 | 6.81410 | 30917 ft | 422 kts | 137° |
| 2026-05-06 18:53 | 51.33802 | 6.87919 | 30560 ft | 412 kts | 137° |
| 2026-05-06 18:53 | 51.31773 | 6.91094 | 30216 ft | 404 kts | 137° |
| 2026-05-06 18:53 | 51.29777 | 6.94212 | 29884 ft | 399 kts | 137° |
| 2026-05-06 18:53 | 51.27802 | 6.97293 | 29498 ft | 396 kts | 137° |
| 2026-05-06 18:54 | 51.25835 | 7.00355 | 29106 ft | 394 kts | 137° |
| 2026-05-06 18:54 | 51.23881 | 7.03392 | 28712 ft | 391 kts | 137° |
| 2026-05-06 18:54 | 51.21934 | 7.06410 | 28308 ft | 389 kts | 137° |
| 2026-05-06 18:54 | 51.19995 | 7.09414 | 27939 ft | 387 kts | 137° |
| 2026-05-06 18:55 | 51.18067 | 7.12396 | 27552 ft | 385 kts | 137° |
| 2026-05-06 18:55 | 51.16148 | 7.15358 | 27167 ft | 383 kts | 137° |
| 2026-05-06 18:55 | 51.14247 | 7.18291 | 26815 ft | 377 kts | 137° |
| 2026-05-06 18:55 | 51.12374 | 7.21177 | 26435 ft | 372 kts | 137° |
| 2026-05-06 18:56 | 51.10558 | 7.23971 | 26049 ft | 368 kts | 137° |
| 2026-05-06 18:56 | 51.08732 | 7.26777 | 25681 ft | 363 kts | 137° |
| 2026-05-06 18:56 | 51.06924 | 7.29555 | 25285 ft | 359 kts | 137° |
| 2026-05-06 18:56 | 51.05073 | 7.32163 | 24914 ft | 353 kts | 145° |
| 2026-05-06 18:57 | 51.02995 | 7.34217 | 24496 ft | 354 kts | 154° |
| 2026-05-06 18:57 | 51.00777 | 7.36036 | 24053 ft | 362 kts | 154° |
| 2026-05-06 18:57 | 50.98537 | 7.37869 | 23615 ft | 363 kts | 154° |
| 2026-05-06 18:57 | 50.96296 | 7.39698 | 23127 ft | 362 kts | 154° |
| 2026-05-06 18:58 | 50.94065 | 7.41526 | 22677 ft | 360 kts | 154° |
| 2026-05-06 18:58 | 50.91847 | 7.43347 | 22240 ft | 358 kts | 154° |
| 2026-05-06 18:58 | 50.89643 | 7.45158 | 21793 ft | 356 kts | 154° |
| 2026-05-06 18:58 | 50.87449 | 7.46955 | 21373 ft | 354 kts | 154° |
| 2026-05-06 18:59 | 50.85268 | 7.48742 | 20941 ft | 352 kts | 154° |
| 2026-05-06 18:59 | 50.83097 | 7.50516 | 20504 ft | 350 kts | 154° |
| 2026-05-06 18:59 | 50.80964 | 7.52254 | 20066 ft | 348 kts | 154° |
| 2026-05-06 18:59 | 50.78819 | 7.54002 | 19638 ft | 346 kts | 155° |
| 2026-05-06 19:00 | 50.76683 | 7.55743 | 19234 ft | 345 kts | 155° |
| 2026-05-06 19:00 | 50.74525 | 7.57499 | 18821 ft | 343 kts | 155° |
| 2026-05-06 19:00 | 50.72410 | 7.59216 | 18371 ft | 341 kts | 155° |
| 2026-05-06 19:00 | 50.70302 | 7.60923 | 17946 ft | 340 kts | 155° |
| 2026-05-06 19:01 | 50.68208 | 7.62619 | 17516 ft | 338 kts | 155° |
| 2026-05-06 19:01 | 50.66124 | 7.64308 | 17105 ft | 335 kts | 155° |
| 2026-05-06 19:01 | 50.64066 | 7.65974 | 16700 ft | 333 kts | 155° |
| 2026-05-06 19:01 | 50.62005 | 7.67637 | 16285 ft | 331 kts | 155° |
| 2026-05-06 19:02 | 50.59965 | 7.69284 | 15896 ft | 328 kts | 156° |
| 2026-05-06 19:02 | 50.57947 | 7.70916 | 15520 ft | 325 kts | 155° |
| 2026-05-06 19:02 | 50.55936 | 7.72540 | 15154 ft | 324 kts | 156° |
| 2026-05-06 19:02 | 50.53966 | 7.74126 | 14792 ft | 322 kts | 155° |
| 2026-05-06 19:03 | 50.51956 | 7.75746 | 14424 ft | 320 kts | 155° |
| 2026-05-06 19:03 | 50.50007 | 7.77317 | 14064 ft | 318 kts | 155° |
| 2026-05-06 19:03 | 50.48040 | 7.78896 | 13707 ft | 316 kts | 155° |
| 2026-05-06 19:03 | 50.46086 | 7.80461 | 13301 ft | 315 kts | 155° |
| 2026-05-06 19:04 | 50.44143 | 7.82026 | 12946 ft | 313 kts | 154° |
| 2026-05-06 19:04 | 50.42324 | 7.83993 | 12614 ft | 314 kts | 143° |
| 2026-05-06 19:04 | 50.40641 | 7.86107 | 12333 ft | 313 kts | 143° |
| 2026-05-06 19:04 | 50.38939 | 7.88227 | 12033 ft | 311 kts | 144° |
| 2026-05-06 19:05 | 50.37232 | 7.90339 | 11735 ft | 307 kts | 144° |
| 2026-05-06 19:05 | 50.35558 | 7.92403 | 11450 ft | 306 kts | 144° |
| 2026-05-06 19:05 | 50.33911 | 7.94433 | 11160 ft | 305 kts | 144° |
| 2026-05-06 19:05 | 50.32250 | 7.96482 | 10870 ft | 303 kts | 144° |
| 2026-05-06 19:06 | 50.30597 | 7.98522 | 10584 ft | 302 kts | 144° |
| 2026-05-06 19:06 | 50.28950 | 8.00556 | 10302 ft | 301 kts | 144° |
| 2026-05-06 19:06 | 50.27300 | 8.02592 | 9993 ft | 296 kts | 144° |
| 2026-05-06 19:06 | 50.25844 | 8.04820 | 9827 ft | 294 kts | 131° |
| 2026-05-06 19:07 | 50.24618 | 8.07337 | 9849 ft | 295 kts | 130° |
| 2026-05-06 19:07 | 50.23371 | 8.09879 | 9849 ft | 295 kts | 130° |
| 2026-05-06 19:07 | 50.22114 | 8.12415 | 9843 ft | 295 kts | 130° |
| 2026-05-06 19:07 | 50.20854 | 8.14950 | 9844 ft | 296 kts | 130° |
| 2026-05-06 19:08 | 50.19594 | 8.17487 | 9849 ft | 297 kts | 130° |
| 2026-05-06 19:08 | 50.18330 | 8.20036 | 9846 ft | 297 kts | 130° |
| 2026-05-06 19:08 | 50.17071 | 8.22581 | 9847 ft | 296 kts | 130° |
| 2026-05-06 19:08 | 50.15812 | 8.25125 | 9848 ft | 296 kts | 130° |
| 2026-05-06 19:09 | 50.14552 | 8.27663 | 9841 ft | 296 kts | 131° |
| 2026-05-06 19:09 | 50.13294 | 8.30190 | 9749 ft | 294 kts | 131° |
| 2026-05-06 19:09 | 50.12042 | 8.32709 | 9402 ft | 293 kts | 130° |
| 2026-05-06 19:09 | 50.11017 | 8.35447 | 9052 ft | 295 kts | 113° |
| 2026-05-06 19:10 | 50.10568 | 8.38557 | 8720 ft | 297 kts | 94° |
| 2026-05-06 19:10 | 50.10744 | 8.41762 | 8431 ft | 298 kts | 76° |
| 2026-05-06 19:10 | 50.11426 | 8.44801 | 8176 ft | 297 kts | 69° |
| 2026-05-06 19:10 | 50.12155 | 8.47808 | 7977 ft | 296 kts | 70° |
| 2026-05-06 19:11 | 50.12876 | 8.50813 | 7770 ft | 295 kts | 70° |
| 2026-05-06 19:11 | 50.13591 | 8.53805 | 7510 ft | 294 kts | 70° |
| 2026-05-06 19:11 | 50.14303 | 8.56787 | 7256 ft | 293 kts | 70° |
| 2026-05-06 19:11 | 50.15007 | 8.59756 | 7059 ft | 292 kts | 70° |
| 2026-05-06 19:12 | 50.15708 | 8.62719 | 6893 ft | 291 kts | 70° |
| 2026-05-06 19:12 | 50.16408 | 8.65676 | 6830 ft | 290 kts | 70° |
| 2026-05-06 19:12 | 50.17106 | 8.68630 | 6832 ft | 291 kts | 70° |
| 2026-05-06 19:12 | 50.17807 | 8.71599 | 6831 ft | 291 kts | 70° |
| 2026-05-06 19:13 | 50.18510 | 8.74558 | 6616 ft | 290 kts | 70° |
| 2026-05-06 19:13 | 50.19209 | 8.77500 | 6337 ft | 288 kts | 70° |
| 2026-05-06 19:13 | 50.19900 | 8.80419 | 5970 ft | 286 kts | 70° |
| 2026-05-06 19:13 | 50.20584 | 8.83323 | 5599 ft | 284 kts | 70° |
| 2026-05-06 19:14 | 50.21260 | 8.86201 | 5255 ft | 281 kts | 70° |
| 2026-05-06 19:14 | 50.21930 | 8.89057 | 5050 ft | 278 kts | 70° |
| 2026-05-06 19:14 | 50.22577 | 8.91822 | 4981 ft | 264 kts | 70° |
| 2026-05-06 19:14 | 50.23188 | 8.94431 | 4988 ft | 251 kts | 70° |
| 2026-05-06 19:15 | 50.23606 | 8.97041 | 4989 ft | 246 kts | 91° |
| 2026-05-06 19:15 | 50.23205 | 8.99577 | 4995 ft | 242 kts | 123° |
| 2026-05-06 19:15 | 50.22087 | 9.01470 | 4997 ft | 237 kts | 149° |
| 2026-05-06 19:15 | 50.20608 | 9.02528 | 5023 ft | 233 kts | 169° |
| 2026-05-06 19:16 | 50.19014 | 9.02728 | 4995 ft | 229 kts | 188° |
| 2026-05-06 19:16 | 50.17494 | 9.02079 | 5001 ft | 227 kts | 207° |
| 2026-05-06 19:16 | 50.16210 | 9.00677 | 4999 ft | 226 kts | 226° |
| 2026-05-06 19:16 | 50.15308 | 8.98690 | 5002 ft | 225 kts | 245° |
| 2026-05-06 19:17 | 50.14756 | 8.96430 | 4994 ft | 218 kts | 250° |
| 2026-05-06 19:17 | 50.14246 | 8.94233 | 4992 ft | 212 kts | 250° |
| 2026-05-06 19:17 | 50.13745 | 8.92091 | 5017 ft | 210 kts | 250° |
| 2026-05-06 19:17 | 50.13242 | 8.89948 | 5006 ft | 210 kts | 250° |
| 2026-05-06 19:18 | 50.12741 | 8.87817 | 5004 ft | 210 kts | 250° |
| 2026-05-06 19:18 | 50.12240 | 8.85683 | 4947 ft | 208 kts | 250° |
| 2026-05-06 19:18 | 50.11760 | 8.83645 | 4719 ft | 194 kts | 250° |
| 2026-05-06 19:18 | 50.11305 | 8.81715 | 4449 ft | 185 kts | 250° |
| 2026-05-06 19:19 | 50.10868 | 8.79862 | 4199 ft | 180 kts | 251° |
| 2026-05-06 19:19 | 50.10436 | 8.78030 | 3936 ft | 180 kts | 251° |
| 2026-05-06 19:19 | 50.10003 | 8.76199 | 3684 ft | 180 kts | 251° |
| 2026-05-06 19:19 | 50.09571 | 8.74369 | 3429 ft | 180 kts | 251° |
| 2026-05-06 19:20 | 50.09138 | 8.72540 | 3166 ft | 180 kts | 252° |
| 2026-05-06 19:20 | 50.08715 | 8.70756 | 2920 ft | 172 kts | 252° |
| 2026-05-06 19:20 | 50.08303 | 8.69019 | 2668 ft | 170 kts | 252° |
| 2026-05-06 19:20 | 50.07894 | 8.67292 | 2420 ft | 169 kts | 252° |
| 2026-05-06 19:21 | 50.07485 | 8.65570 | 2176 ft | 169 kts | 253° |
| 2026-05-06 19:21 | 50.07098 | 8.63945 | 1923 ft | 152 kts | 252° |
| 2026-05-06 19:21 | 50.06742 | 8.62450 | 1719 ft | 144 kts | 253° |
| 2026-05-06 19:21 | 50.06400 | 8.61009 | 1500 ft | 141 kts | 253° |
| 2026-05-06 19:22 | 50.06063 | 8.59583 | 1302 ft | 140 kts | 253° |
| 2026-05-06 19:22 | 50.05728 | 8.58175 | 1099 ft | 138 kts | 252° |
| 2026-05-06 19:22 | 50.05395 | 8.56795 | 885 ft | 138 kts | 251° |
| 2026-05-06 19:22 | 50.05065 | 8.55396 | 689 ft | 137 kts | 252° |
| 2026-05-06 19:23 | 50.04731 | 8.54012 | 486 ft | 136 kts | 252° |
| 2026-05-06 19:23 | 50.04398 | 8.52640 | 357 ft | 129 kts | 251° |
| 2026-05-06 19:23 | 50.04136 | 8.51505 | 332 ft | 89 kts | 249° |
| 2026-05-06 19:23 | 50.04004 | 8.51057 | 327 ft | 29 kts | 226° |
| 2026-05-06 19:24 | 50.03883 | 8.50888 | 322 ft | 14 kts | 220° |
| 2026-05-06 19:24 | 50.03855 | 8.50854 | 326 ft | 0 kts | 215° |
| 2026-05-06 19:25 | 50.03836 | 8.50839 | 329 ft | 5 kts | 199° |
| 2026-05-06 19:25 | 50.03794 | 8.50857 | 330 ft | 8 kts | 135° |
| 2026-05-06 19:25 | 50.03806 | 8.51029 | 334 ft | 16 kts | 69° |
| 2026-05-06 19:25 | 50.03847 | 8.51199 | 336 ft | 17 kts | 70° |
| 2026-05-06 19:26 | 50.03893 | 8.51392 | 335 ft | 21 kts | 69° |
| 2026-05-06 19:26 | 50.03930 | 8.51545 | 334 ft | 23 kts | 69° |
| 2026-05-06 19:26 | 50.03987 | 8.51781 | 335 ft | 24 kts | 70° |
| 2026-05-06 19:26 | 50.04044 | 8.52025 | 337 ft | 24 kts | 70° |
| 2026-05-06 19:27 | 50.04102 | 8.52265 | 347 ft | 23 kts | 69° |
| 2026-05-06 19:27 | 50.04158 | 8.52500 | 353 ft | 23 kts | 69° |
| 2026-05-06 19:27 | 50.04214 | 8.52730 | 355 ft | 23 kts | 70° |
| 2026-05-06 19:27 | 50.04268 | 8.52957 | 356 ft | 22 kts | 70° |
| 2026-05-06 19:28 | 50.04320 | 8.53176 | 366 ft | 21 kts | 69° |
| 2026-05-06 19:28 | 50.04365 | 8.53364 | 370 ft | 15 kts | 70° |
| 2026-05-06 19:28 | 50.04392 | 8.53501 | 375 ft | 13 kts | 79° |
| 2026-05-06 19:28 | 50.04405 | 8.53670 | 375 ft | 19 kts | 84° |
| 2026-05-06 19:29 | 50.04420 | 8.53882 | 375 ft | 21 kts | 84° |
| 2026-05-06 19:29 | 50.04435 | 8.54108 | 375 ft | 22 kts | 84° |
| 2026-05-06 19:29 | 50.04451 | 8.54356 | 373 ft | 24 kts | 84° |
| 2026-05-06 19:29 | 50.04433 | 8.54572 | 367 ft | 16 kts | 110° |
| 2026-05-06 19:30 | 50.04367 | 8.54714 | 361 ft | 17 kts | 138° |
| 2026-05-06 19:30 | 50.04267 | 8.54798 | 357 ft | 14 kts | 160° |
| 2026-05-06 19:30 | 50.04169 | 8.54852 | 354 ft | 14 kts | 160° |
| 2026-05-06 19:30 | 50.04079 | 8.54904 | 351 ft | 13 kts | 159° |
| 2026-05-06 19:31 | 50.04011 | 8.54944 | 358 ft | 8 kts | 159° |
| 2026-05-06 19:31 | 50.03968 | 8.54970 | 355 ft | 6 kts | 159° |
| 2026-05-06 19:31 | 50.03905 | 8.55007 | 355 ft | 2 kts | 159° |
| 2026-05-06 19:32 | 50.03881 | 8.55021 | 352 ft | 5 kts | 158° |
| 2026-05-06 19:32 | 50.03851 | 8.55075 | 349 ft | 8 kts | 108° |
| 2026-05-06 19:32 | 50.03861 | 8.55163 | 352 ft | 9 kts | 70° |
| 2026-05-06 19:32 | 50.03886 | 8.55269 | 353 ft | 12 kts | 70° |
| 2026-05-06 19:33 | 50.03917 | 8.55397 | 353 ft | 14 kts | 69° |
| 2026-05-06 19:33 | 50.03952 | 8.55545 | 351 ft | 16 kts | 69° |
| 2026-05-06 19:33 | 50.03993 | 8.55721 | 351 ft | 19 kts | 70° |
| 2026-05-06 19:33 | 50.04040 | 8.55918 | 357 ft | 20 kts | 70° |
| 2026-05-06 19:34 | 50.04092 | 8.56126 | 357 ft | 21 kts | 70° |
| 2026-05-06 19:34 | 50.04141 | 8.56336 | 361 ft | 20 kts | 69° |
| 2026-05-06 19:34 | 50.04186 | 8.56523 | 360 ft | 16 kts | 69° |
| 2026-05-06 19:34 | 50.04220 | 8.56665 | 364 ft | 12 kts | 69° |
| 2026-05-06 19:35 | 50.04236 | 8.56732 | 360 ft | 0 kts | 69° |
| 2026-05-06 19:35 | 50.04238 | 8.56744 | 359 ft | 2 kts | 70° |
| 2026-05-06 19:35 | 50.04248 | 8.56785 | 361 ft | 6 kts | 70° |
| 2026-05-06 19:36 | 50.04267 | 8.56864 | 361 ft | 10 kts | 70° |
| 2026-05-06 19:36 | 50.04299 | 8.56999 | 366 ft | 16 kts | 69° |
| 2026-05-06 19:36 | 50.04339 | 8.57168 | 361 ft | 18 kts | 70° |
| 2026-05-06 19:36 | 50.04385 | 8.57360 | 365 ft | 20 kts | 68° |
| 2026-05-06 19:37 | 50.04434 | 8.57543 | 363 ft | 16 kts | 65° |
| 2026-05-06 19:37 | 50.04465 | 8.57677 | 368 ft | 13 kts | 73° |
| 2026-05-06 19:37 | 50.04499 | 8.57837 | 367 ft | 17 kts | 71° |
| 2026-05-06 19:37 | 50.04536 | 8.57985 | 365 ft | 13 kts | 60° |
| 2026-05-06 19:38 | 50.04612 | 8.58015 | 361 ft | 13 kts | 342° |
| 2026-05-06 19:38 | 50.04696 | 8.57967 | 359 ft | 12 kts | 339° |
| 2026-05-06 19:38 | 50.04769 | 8.57924 | 359 ft | 10 kts | 340° |
| 2026-05-06 19:38 | 50.04827 | 8.57883 | 362 ft | 8 kts | 322° |
| 2026-05-06 19:39 | 50.04870 | 8.57854 | 359 ft | 6 kts | 356° |
| 2026-05-06 19:39 | 50.04896 | 8.57863 | 363 ft | 2 kts | 18° |
| 2026-05-06 19:39 | 50.04913 | 8.57873 | 359 ft | 2 kts | 20° |
| 2026-05-06 19:39 | 50.04921 | 8.57877 | 359 ft | 0 kts | 21° |
| 2026-05-06 19:40 | 50.04922 | 8.57878 | 359 ft | 0 kts | 21° |
| 2026-05-06 19:40 | 50.04923 | 8.57878 | 365 ft | 0 kts | 21° |